Idaho Falls Regional Airport Idaho Falls US
ICAO: KIDA
IATA: IDA
Category: Medium
Scheduled Services: Yes

Elevation: 4744 ft
TransAlt. 18000 ft.

Airport Communications:
ASOS:135.325
ATIS:135.325
SALT LAKE CITY CNTR:128.35
CTAF:118.5
GND:121.7
BOISE RDO:122.55
TWR:118.5
UNICOM:122.95

KIDA Zoom In..

Runways:

(A) RW 02 length 9002 ft width 150 ft
---- / hdg 23

(B) RW 17 length 4051 ft width 75 ft
---- / hdg 167

(C) RW 20 length 9002 ft width 150 ft
ILS 111.10 / hdg 203

(D) RW 35 length 4051 ft width 75 ft
---- / hdg 347

Location; KIDA
Day. 20 / Time. 10.53 Zulu
* Altimeter: 30.02
* Temperature: 07° c. 44.6°f.
* Wind from: 340° Speed 04 kn.
Dewpoint: 06° c.
Visibility: 10 Statute Miles.
Clouds: Broken 7500 ft.

KIDA 201053Z AUTO 34004KT 10SM BKN075 07/06 A3002 RMK AO2 SLP146 T00670056


Wind From 340°
Speed 04 kn.

 
 
jpsmedia.com for Web Design SOUNDCLOUD worldairports.se 2018   terms of use